Time;durP1;ratioP1;P1;durP2;ratioP2;P2;SDS_P1;SDS_P2;PMS_P1;PMS_P2;Temp;Humidity;BMP_temperature;BMP_pressure;BME280_temperature;BME280_humidity;BME280_pressure;Samples;Min_cycle;Max_cycle;Signal;HPM_P1;HPM_P2
2022/07/08 00:01:33;;;;;;;4.70;2.15;;;;;;;22.33;44.16;99665.31;4480302;31;32984;-61
2022/07/08 00:04:01;;;;;;;5.75;2.17;;;;;;;22.37;44.10;99673.13;4492209;31;33484;-61
2022/07/08 00:06:29;;;;;;;6.57;2.47;;;;;;;22.10;44.75;99676.34;4480833;31;33647;-60
2022/07/08 00:08:56;;;;;;;5.18;1.98;;;;;;;22.46;43.98;99677.41;4487769;31;34574;-59
2022/07/08 00:11:24;;;;;;;4.43;2.00;;;;;;;22.20;44.43;99675.25;4491929;31;32937;-60
2022/07/08 00:13:52;;;;;;;5.53;2.33;;;;;;;22.24;44.50;99676.53;4494096;31;32404;-59
2022/07/08 00:16:19;;;;;;;4.43;2.45;;;;;;;21.98;45.43;99683.31;4492952;31;32773;-59
2022/07/08 00:18:47;;;;;;;6.35;2.40;;;;;;;22.57;43.71;99671.47;4491638;31;34701;-61
2022/07/08 00:21:15;;;;;;;5.40;2.20;;;;;;;22.85;43.04;99676.97;4497768;31;33206;-58
2022/07/08 00:23:42;;;;;;;4.82;2.35;;;;;;;22.56;43.70;99673.31;4495160;31;34923;-59
2022/07/08 00:26:10;;;;;;;5.85;2.55;;;;;;;22.53;43.85;99671.00;4496313;31;33759;-60
2022/07/08 00:28:37;;;;;;;5.65;2.40;;;;;;;;;;4490793;31;34472;-59
2022/07/08 00:31:05;;;;;;;5.37;2.10;;;;;;;21.70;46.13;99675.00;4495335;31;33796;-59
2022/07/08 00:33:33;;;;;;;4.53;2.33;;;;;;;22.53;43.92;99676.44;4494056;31;34005;-59
2022/07/08 00:36:00;;;;;;;6.22;2.37;;;;;;;22.38;44.40;99674.84;4494227;31;33673;-60
2022/07/08 00:38:28;;;;;;;5.60;2.62;;;;;;;22.53;43.98;99668.25;4495461;31;33842;-60
2022/07/08 00:40:56;;;;;;;4.43;2.40;;;;;;;22.24;44.93;99665.63;4495185;31;34811;-59
2022/07/08 00:43:35;;;;;;;6.00;2.25;;;;;;;22.73;43.84;99676.66;4492548;31;33638;-59
2022/07/08 00:46:03;;;;;;;6.45;2.47;;;;;;;22.53;44.38;99662.81;4494877;31;33982;-59
2022/07/08 00:48:31;;;;;;;11.88;2.10;;;;;;;22.71;43.58;99666.97;4495564;31;34494;-59
2022/07/08 00:51:00;;;;;;;5.87;2.25;;;;;;;22.69;43.69;99672.63;4495055;31;34428;-62
2022/07/08 00:53:30;;;;;;;3.47;2.20;;;;;;;22.34;44.55;99663.44;4487305;31;33293;-60
2022/07/08 00:55:59;;;;;;;4.00;2.22;;;;;;;22.10;45.19;99668.19;4480090;31;33798;-60
2022/07/08 00:58:26;;;;;;;4.90;2.40;;;;;;;21.98;45.52;99663.41;4489527;31;33466;-60
2022/07/08 01:00:54;;;;;;;4.65;2.25;;;;;;;22.08;45.20;99659.34;4496074;31;33229;-62
2022/07/08 01:03:22;;;;;;;4.57;2.50;;;;;;;22.15;44.99;99664.03;4494652;31;33602;-60
2022/07/08 01:05:50;;;;;;;4.78;2.03;;;;;;;21.56;46.42;99667.66;4496602;31;35181;-61
2022/07/08 01:08:18;;;;;;;11.57;2.87;;;;;;;21.20;47.46;99657.47;4496026;31;34538;-62
2022/07/08 01:10:46;;;;;;;6.43;2.20;;;;;;;20.72;48.78;99665.03;4493298;31;33206;-61
2022/07/08 01:13:14;;;;;;;4.68;2.65;;;;;;;21.33;47.27;99665.84;4496095;31;34231;-59
2022/07/08 01:15:43;;;;;;;4.60;2.67;;;;;;;21.21;47.66;99661.88;4493866;31;33864;-61
2022/07/08 01:18:22;;;;;;;5.72;2.62;;;;;;;21.05;47.95;99660.16;4496113;31;33994;-61
2022/07/08 01:20:50;;;;;;;4.93;2.55;;;;;;;21.18;47.68;99659.53;4496815;31;34283;-61
2022/07/08 01:23:18;;;;;;;4.12;2.30;;;;;;;21.43;47.09;99651.97;4494785;31;33752;-61
2022/07/08 01:25:46;;;;;;;5.43;2.40;;;;;;;21.07;47.95;99658.09;4497745;31;32671;-59
2022/07/08 01:28:14;;;;;;;5.32;2.40;;;;;;;21.33;47.19;99654.94;4497364;31;34775;-61
2022/07/08 01:30:43;;;;;;;4.82;2.62;;;;;;;21.54;46.83;99661.56;4493999;31;33308;-61
2022/07/08 01:33:10;;;;;;;4.97;2.45;;;;;;;21.28;47.55;99665.53;4492505;31;33571;-60
2022/07/08 01:35:38;;;;;;;5.72;2.40;;;;;;;21.39;47.19;99656.13;4496625;31;35199;-61
2022/07/08 01:38:06;;;;;;;7.20;2.80;;;;;;;21.65;46.61;99660.25;4497458;31;34784;-59
2022/07/08 01:40:33;;;;;;;3.60;2.25;;;;;;;21.21;47.66;99647.41;4496136;31;33272;-62
2022/07/08 01:43:01;;;;;;;5.90;2.60;;;;;;;21.41;47.24;99640.41;4494724;31;33928;-60
2022/07/08 01:45:29;;;;;;;3.70;2.35;;;;;;;21.45;47.16;99641.75;4481264;31;33334;-62
2022/07/08 01:47:56;;;;;;;5.45;2.87;;;;;;;21.31;47.54;99637.94;4492883;31;33828;-60
2022/07/08 01:50:24;;;;;;;4.60;2.50;;;;;;;21.44;47.10;99642.78;4486059;31;33272;-61
2022/07/08 01:52:51;;;;;;;4.60;2.47;;;;;;;21.56;46.97;99645.88;4494357;31;32561;-59
2022/07/08 01:55:19;;;;;;;5.05;2.37;;;;;;;21.26;47.79;99648.56;4496587;31;32634;-60
2022/07/08 01:57:47;;;;;;;4.60;2.40;;;;;;;21.57;47.17;99642.13;4496688;31;32319;-61
2022/07/08 02:00:14;;;;;;;3.97;2.42;;;;;;;21.53;47.23;99643.53;4494894;31;31716;-59
2022/07/08 02:02:45;;;;;;;4.07;2.40;;;;;;;21.38;47.45;99640.81;4490890;31;33505;-59
2022/07/08 02:05:13;;;;;;;5.95;2.83;;;;;;;21.57;47.17;99644.84;4491147;31;33833;-59
2022/07/08 02:07:42;;;;;;;4.43;2.25;;;;;;;21.76;46.80;99643.41;4480952;31;33817;-59
2022/07/08 02:10:10;;;;;;;2.65;1.77;;;;;;;21.34;47.77;99651.19;4492953;31;32112;-60
2022/07/08 02:12:38;;;;;;;5.07;2.70;;;;;;;21.56;47.32;99652.16;4495004;31;33829;-60
2022/07/08 02:15:07;;;;;;;5.53;2.17;;;;;;;21.63;47.04;99655.81;4494929;31;35273;-60
2022/07/08 02:17:38;;;;;;;5.37;2.65;;;;;;;21.97;46.20;99654.41;4495499;31;32666;-60
2022/07/08 02:20:11;;;;;;;5.40;2.58;;;;;;;21.91;46.18;99654.31;4496309;31;32219;-59
2022/07/08 02:22:40;;;;;;;5.45;2.72;;;;;;;21.82;46.70;99651.69;4490825;31;33820;-61
2022/07/08 02:25:08;;;;;;;5.15;2.28;;;;;;;22.09;45.96;99658.31;4492585;31;32733;-62
2022/07/08 02:27:36;;;;;;;4.35;2.53;;;;;;;21.65;47.11;99661.09;4492721;31;33503;-62
2022/07/08 02:30:04;;;;;;;3.72;2.30;;;;;;;21.24;47.91;99658.78;4486585;31;33543;-62
2022/07/08 02:32:32;;;;;;;5.47;2.83;;;;;;;21.44;47.49;99666.44;4493454;31;32459;-61
2022/07/08 02:34:59;;;;;;;4.75;2.28;;;;;;;21.36;47.58;99662.78;4497011;31;35145;-62
2022/07/08 02:37:27;;;;;;;3.50;2.17;;;;;;;21.10;48.42;99667.78;4494846;31;34890;-61
2022/07/08 02:39:55;;;;;;;5.37;2.40;;;;;;;21.48;47.44;99668.63;4491300;31;34386;-61
2022/07/08 02:42:22;;;;;;;4.62;2.67;;;;;;;21.11;48.44;99664.03;4495981;31;34539;-62
2022/07/08 02:44:50;;;;;;;4.82;3.15;;;;;;;20.64;49.67;99671.41;4495371;31;33644;-63
2022/07/08 02:47:17;;;;;;;4.95;2.60;;;;;;;21.14;48.41;99661.78;4497037;31;33593;-62
2022/07/08 02:49:45;;;;;;;4.68;3.08;;;;;;;21.05;48.54;99662.88;4495054;31;34399;-65
2022/07/08 02:52:12;;;;;;;8.02;2.45;;;;;;;20.65;49.78;99670.38;4495506;31;34716;-62
2022/07/08 02:54:40;;;;;;;4.70;2.65;;;;;;;20.75;49.45;99659.25;4490823;31;32457;-61
2022/07/08 02:57:08;;;;;;;5.25;2.67;;;;;;;20.87;49.16;99665.94;4497967;31;35036;-62
2022/07/08 02:59:35;;;;;;;4.65;2.60;;;;;;;20.70;49.82;99673.37;4497796;31;33311;-61
2022/07/08 03:02:03;;;;;;;6.10;2.70;;;;;;;20.36;50.52;99675.63;4497047;31;33689;-61
2022/07/08 03:04:31;;;;;;;3.45;2.30;;;;;;;20.61;49.92;99670.88;4498718;31;34236;-61
2022/07/08 03:06:58;;;;;;;4.68;2.67;;;;;;;20.79;49.50;99678.75;4494656;31;34163;-61
2022/07/08 03:09:26;;;;;;;3.83;2.37;;;;;;;21.09;48.62;99675.09;4494520;31;34637;-62
2022/07/08 03:11:54;;;;;;;4.47;2.37;;;;;;;21.35;48.08;99676.59;4493345;31;33709;-59
2022/07/08 03:14:21;;;;;;;4.55;2.55;;;;;;;21.49;47.58;99667.56;4497653;31;32262;-63
2022/07/08 03:16:49;;;;;;;6.07;2.70;;;;;;;21.69;47.07;99676.03;4496204;31;34556;-62
2022/07/08 03:19:16;;;;;;;4.57;2.40;;;;;;;21.73;46.88;99685.50;4498751;31;34504;-62
2022/07/08 03:21:44;;;;;;;5.60;2.50;;;;;;;21.74;46.86;99679.03;4497857;31;34830;-64
2022/07/08 03:24:12;;;;;;;4.75;2.22;;;;;;;21.53;47.49;99689.81;4497051;31;35064;-64
2022/07/08 03:26:39;;;;;;;3.55;2.30;;;;;;;21.33;47.88;99686.78;4496704;31;33665;-64
2022/07/08 03:29:07;;;;;;;5.53;2.87;;;;;;;21.47;47.60;99685.12;4487949;31;32990;-63
2022/07/08 03:31:35;;;;;;;6.80;2.45;;;;;;;21.14;48.38;99682.69;4497404;31;32396;-63
2022/07/08 03:34:02;;;;;;;5.68;2.25;;;;;;;21.16;48.53;99684.22;4495043;31;35177;-63
2022/07/08 03:36:30;;;;;;;3.75;2.30;;;;;;;21.61;47.30;99678.84;4498176;31;33497;-62
2022/07/08 03:38:58;;;;;;;3.40;2.22;;;;;;;21.46;47.88;99689.72;4494472;31;34381;-64
2022/07/08 03:41:26;;;;;;;3.78;2.20;;;;;;;21.45;47.71;99689.94;4496522;31;35020;-64
2022/07/08 03:43:54;;;;;;;21.42;2.85;;;;;;;21.65;47.13;99682.88;4494827;31;33721;-62
2022/07/08 03:46:21;;;;;;;4.28;2.45;;;;;;;21.54;47.59;99688.78;4497788;31;35252;-62
2022/07/08 03:48:49;;;;;;;3.70;2.30;;;;;;;20.73;49.41;99680.31;4493072;31;33270;-62
2022/07/08 03:51:17;;;;;;;3.40;2.15;;;;;;;21.52;47.63;99680.81;4496146;31;33950;-62
2022/07/08 03:53:45;;;;;;;4.37;2.60;;;;;;;20.94;49.17;99682.38;4499120;31;33887;-62
2022/07/08 03:56:13;;;;;;;4.80;2.53;;;;;;;20.99;49.13;99685.38;4499082;31;33898;-65
2022/07/08 03:58:40;;;;;;;4.53;2.65;;;;;;;21.36;48.13;99684.56;4500730;31;32296;-64
2022/07/08 04:01:08;;;;;;;5.07;3.05;;;;;;;21.06;48.84;99688.19;4497039;31;34782;-64
2022/07/08 04:03:36;;;;;;;4.45;2.22;;;;;;;21.24;48.42;99690.59;4490531;31;34849;-63
2022/07/08 04:06:04;;;;;;;3.85;2.30;;;;;;;20.77;49.94;99694.41;4488284;31;34715;-62
2022/07/08 04:08:31;;;;;;;4.18;2.53;;;;;;;21.01;49.32;99690.66;4491010;31;34317;-64
2022/07/08 04:11:00;;;;;;;4.57;2.47;;;;;;;20.81;49.86;99696.59;4492855;31;33780;-65
2022/07/08 04:13:27;;;;;;;4.15;2.33;;;;;;;20.61;50.16;99700.81;4501152;31;32619;-63
2022/07/08 04:15:56;;;;;;;5.95;2.65;;;;;;;20.62;49.92;99691.62;4492644;31;33544;-63
2022/07/08 04:18:25;;;;;;;4.85;2.60;;;;;;;20.99;49.36;99698.97;4499146;31;33949;-63
2022/07/08 04:20:53;;;;;;;4.37;2.75;;;;;;;21.04;49.39;99698.44;4499049;31;33708;-62
2022/07/08 04:23:21;;;;;;;6.40;2.55;;;;;;;20.45;50.90;99699.88;4499753;31;34913;-63
2022/07/08 04:25:54;;;;;;;3.35;1.92;;;;;;;20.96;49.61;99699.34;4497605;31;34692;-62
2022/07/08 04:28:22;;;;;;;4.72;2.25;;;;;;;20.75;50.38;99691.03;4499259;31;33245;-64
2022/07/08 04:30:49;;;;;;;5.07;2.83;;;;;;;20.78;50.49;99696.13;4499337;31;33809;-63
2022/07/08 04:33:18;;;;;;;4.57;2.33;;;;;;;20.75;50.52;99699.19;4498434;31;33784;-65
2022/07/08 04:35:45;;;;;;;5.00;2.35;;;;;;;20.92;50.30;99695.31;4498078;31;33720;-62
2022/07/08 04:38:13;;;;;;;4.53;2.40;;;;;;;21.26;49.10;99702.16;4500355;31;34258;-63
2022/07/08 04:40:40;;;;;;;5.70;3.08;;;;;;;21.33;49.04;99703.09;4499775;31;33658;-62
2022/07/08 04:43:09;;;;;;;3.95;2.42;;;;;;;21.44;48.83;99707.28;4496389;31;33587;-62
2022/07/08 04:45:36;;;;;;;4.43;2.67;;;;;;;21.21;49.40;99701.84;4496961;31;33928;-62
2022/07/08 04:48:04;;;;;;;3.45;2.25;;;;;;;21.08;49.60;99700.59;4498846;31;34175;-64
2022/07/08 04:50:32;;;;;;;4.62;2.37;;;;;;;21.31;48.88;99697.00;4499954;31;34978;-62
2022/07/08 04:52:59;;;;;;;5.07;2.47;;;;;;;21.15;49.45;99703.44;4494723;31;35144;-63
2022/07/08 04:55:30;;;;;;;5.30;2.45;;;;;;;21.13;49.72;99705.50;4493517;31;34625;-62
2022/07/08 04:58:00;;;;;;;5.45;2.55;;;;;;;21.02;50.25;99692.34;4495438;31;33044;-62
2022/07/08 05:00:29;;;;;;;5.18;2.47;;;;;;;21.01;50.44;99693.38;4496190;31;33554;-62
2022/07/08 05:02:56;;;;;;;5.15;2.70;;;;;;;20.75;50.80;99707.34;4497448;31;35023;-61
2022/07/08 05:05:24;;;;;;;5.25;2.72;;;;;;;20.86;50.67;99706.91;4496774;31;33640;-62
2022/07/08 05:07:53;;;;;;;3.60;2.37;;;;;;;20.57;51.55;99710.34;4494429;31;33100;-63
2022/07/08 05:10:22;;;;;;;6.78;2.72;;;;;;;20.79;51.11;99709.50;4495130;31;33817;-61
2022/07/08 05:12:50;;;;;;;5.93;2.60;;;;;;;21.14;50.34;99713.47;4497918;31;34071;-62
2022/07/08 05:15:18;;;;;;;5.72;3.05;;;;;;;21.24;49.76;99718.66;4497219;31;35015;-62
2022/07/08 05:17:47;;;;;;;5.62;3.20;;;;;;;21.25;49.83;99722.22;4496994;31;33292;-62
2022/07/08 05:20:16;;;;;;;5.65;2.53;;;;;;;21.23;49.89;99722.44;4498580;31;34896;-62
2022/07/08 05:22:44;;;;;;;5.82;2.90;;;;;;;20.55;51.32;99724.16;4500367;31;35057;-61
2022/07/08 05:25:12;;;;;;;8.77;3.28;;;;;;;20.91;50.39;99720.81;4488868;31;32246;-62
2022/07/08 05:27:39;;;;;;;6.50;3.05;;;;;;;21.03;50.20;99727.53;4494817;31;34440;-62
2022/07/08 05:30:09;;;;;;;5.00;2.80;;;;;;;21.05;49.76;99730.91;4487522;31;34791;-62
2022/07/08 05:32:37;;;;;;;6.35;3.25;;;;;;;20.51;51.75;99719.19;4493235;31;35295;-62
2022/07/08 05:35:05;;;;;;;4.50;2.78;;;;;;;20.18;52.26;99733.81;4497691;31;34161;-62
2022/07/08 05:37:37;;;;;;;5.65;3.15;;;;;;;20.81;50.79;99729.22;4492796;31;32100;-61
2022/07/08 05:40:10;;;;;;;5.57;2.65;;;;;;;20.62;51.57;99735.97;4486483;31;32429;-61
2022/07/08 05:42:38;;;;;;;5.15;3.10;;;;;;;20.94;50.47;99734.06;4482590;31;32490;-61
2022/07/08 05:45:07;;;;;;;5.65;3.10;;;;;;;21.00;50.63;99735.22;4495979;31;33874;-61
2022/07/08 05:47:35;;;;;;;5.60;3.40;;;;;;;21.07;50.76;99741.63;4498204;31;34239;-61
2022/07/08 05:50:03;;;;;;;5.62;2.75;;;;;;;20.88;50.82;99741.06;4493706;31;33726;-62
2022/07/08 05:52:30;;;;;;;4.15;2.35;;;;;;;21.31;49.82;99746.81;4498718;31;33711;-61
2022/07/08 05:54:58;;;;;;;5.35;3.28;;;;;;;21.67;49.27;99748.91;4499722;31;34579;-61
2022/07/08 05:57:26;;;;;;;7.37;2.80;;;;;;;21.06;50.54;99753.50;4496074;31;31912;-61
2022/07/08 05:59:53;;;;;;;7.65;2.67;;;;;;;21.51;49.81;99752.66;4489761;31;33679;-62
2022/07/08 06:02:21;;;;;;;6.97;3.08;;;;;;;21.91;49.31;99752.41;4497501;31;35216;-62
2022/07/08 06:04:49;;;;;;;7.62;2.70;;;;;;;21.65;49.59;99758.31;4492382;31;32650;-62
2022/07/08 06:07:17;;;;;;;4.10;2.40;;;;;;;22.14;48.55;99744.97;4487634;31;33268;-62
2022/07/08 06:09:45;;;;;;;5.53;2.65;;;;;;;22.05;48.82;99746.97;4490749;31;32550;-62
2022/07/08 06:12:13;;;;;;;4.60;2.95;;;;;;;22.21;47.90;99753.25;4498554;31;34248;-62
2022/07/08 06:14:41;;;;;;;6.00;2.92;;;;;;;21.95;48.43;99749.09;4498287;31;33873;-61
2022/07/08 06:17:08;;;;;;;4.37;2.83;;;;;;;22.24;48.12;99744.69;4491372;31;34416;-61
2022/07/08 06:19:36;;;;;;;6.40;2.60;;;;;;;22.69;47.50;99749.00;4481433;31;32326;-61
2022/07/08 06:22:04;;;;;;;6.43;2.60;;;;;;;22.24;47.90;99752.88;4496137;31;34243;-62
2022/07/08 06:24:31;;;;;;;6.05;2.65;;;;;;;22.15;48.29;99759.44;4497608;31;33617;-62
2022/07/08 06:26:59;;;;;;;6.50;2.80;;;;;;;22.72;47.20;99747.78;4497960;31;33310;-63
2022/07/08 06:29:27;;;;;;;5.50;3.28;;;;;;;22.67;46.85;99764.75;4497835;31;34620;-61
2022/07/08 06:32:15;;;;;;;4.60;2.50;;;;;;;22.71;46.29;99754.28;4482624;31;32107;-63
2022/07/08 06:34:46;;;;;;;8.52;3.25;;;;;;;22.71;46.96;99759.75;4499624;31;34923;-62
2022/07/08 06:37:13;;;;;;;4.50;2.70;;;;;;;22.83;46.31;99763.66;4497599;31;34350;-61
2022/07/08 06:39:41;;;;;;;7.25;2.50;;;;;;;22.88;46.10;99766.63;4500591;31;33836;-61
2022/07/08 06:42:08;;;;;;;4.75;2.65;;;;;;;22.84;46.80;99773.53;4495645;31;35045;-62
2022/07/08 06:44:36;;;;;;;4.97;2.65;;;;;;;23.21;45.23;99769.75;4499746;31;33667;-61
2022/07/08 06:47:04;;;;;;;4.97;2.72;;;;;;;23.29;45.24;99768.75;4500199;31;34418;-61
2022/07/08 06:49:32;;;;;;;7.22;3.20;;;;;;;23.31;45.48;99766.66;4497135;31;33700;-63
2022/07/08 06:51:59;;;;;;;3.87;2.33;;;;;;;23.82;43.91;99765.59;4493069;31;33876;-61
2022/07/08 06:54:36;;;;;;;6.37;2.80;;;;;;;23.83;44.41;99757.22;4492080;31;33476;-62
2022/07/08 06:57:07;;;;;;;6.45;2.45;;;;;;;23.49;45.16;99772.47;4482912;31;33540;-62
2022/07/08 06:59:35;;;;;;;4.95;3.05;;;;;;;23.56;45.01;99760.75;4496238;31;34182;-62
2022/07/08 07:02:23;;;;;;;5.43;2.83;;;;;;;23.39;44.53;99766.50;4495079;31;33696;-61
2022/07/08 07:04:51;;;;;;;7.35;2.53;;;;;;;23.85;44.10;99760.59;4498374;31;34592;-63
2022/07/08 07:07:19;;;;;;;4.45;2.50;;;;;;;23.71;44.04;99761.53;4490422;31;33419;-62
2022/07/08 07:09:48;;;;;;;3.67;2.40;;;;;;;24.32;42.74;99756.22;4486391;31;32347;-64
2022/07/08 07:12:16;;;;;;;3.47;2.30;;;;;;;23.69;44.33;99756.28;4493393;31;33031;-61
2022/07/08 07:14:43;;;;;;;3.58;2.05;;;;;;;23.48;44.60;99761.75;4495515;31;33810;-61
2022/07/08 07:17:11;;;;;;;3.85;2.50;;;;;;;23.89;44.09;99758.31;4500245;31;33611;-62
2022/07/08 07:19:39;;;;;;;4.28;2.47;;;;;;;24.09;43.86;99764.72;4499836;31;35077;-61
2022/07/08 07:22:06;;;;;;;6.87;2.33;;;;;;;23.77;44.46;99763.47;4494035;31;33882;-62
2022/07/08 07:24:34;;;;;;;6.50;2.55;;;;;;;23.95;44.35;99762.97;4500213;31;33738;-64
2022/07/08 07:27:02;;;;;;;4.35;2.42;;;;;;;23.69;44.68;99767.22;4490786;31;31945;-63
2022/07/08 07:29:30;;;;;;;4.90;2.60;;;;;;;23.83;44.78;99770.03;4497383;31;34832;-64
2022/07/08 07:31:57;;;;;;;4.72;2.00;;;;;;;24.11;43.62;99768.12;4489082;31;32339;-62
2022/07/08 07:34:25;;;;;;;4.43;2.42;;;;;;;23.97;43.91;99770.97;4500113;31;34163;-62
2022/07/08 07:36:53;;;;;;;5.30;2.60;;;;;;;24.25;43.78;99766.28;4498152;31;31880;-61
2022/07/08 07:39:25;;;;;;;4.80;2.40;;;;;;;24.67;42.99;99769.00;4495781;31;33929;-62
2022/07/08 07:41:53;;;;;;;4.45;2.58;;;;;;;24.79;42.63;99767.38;4491973;31;32791;-63
2022/07/08 07:44:20;;;;;;;5.85;2.67;;;;;;;24.41;42.85;99770.59;4487586;31;33502;-63
2022/07/08 07:46:48;;;;;;;5.30;2.55;;;;;;;24.69;42.61;99769.62;4500826;31;33391;-61
2022/07/08 07:49:15;;;;;;;3.60;2.08;;;;;;;24.74;43.13;99772.59;4496063;31;34597;-64
2022/07/08 07:51:43;;;;;;;4.70;2.12;;;;;;;25.10;42.48;99766.78;4494136;31;34455;-63
2022/07/08 07:54:11;;;;;;;4.60;2.50;;;;;;;24.83;41.59;99761.25;4486626;31;32168;-63
2022/07/08 07:56:38;;;;;;;5.37;2.55;;;;;;;25.05;41.00;99758.34;4492676;31;31855;-64
2022/07/08 07:59:06;;;;;;;4.47;2.40;;;;;;;25.41;39.97;99765.37;4499544;31;33870;-61
2022/07/08 08:01:34;;;;;;;4.15;2.30;;;;;;;24.87;41.37;99762.53;4493490;31;35315;-63
2022/07/08 08:04:02;;;;;;;4.53;2.17;;;;;;;25.38;40.23;99760.31;4496776;31;34233;-62
2022/07/08 08:06:29;;;;;;;5.07;2.20;;;;;;;24.97;41.11;99761.28;4490601;31;33346;-61
2022/07/08 08:08:57;;;;;;;4.20;2.37;;;;;;;25.18;40.82;99761.12;4493050;31;33331;-61
2022/07/08 08:11:25;;;;;;;5.50;2.37;;;;;;;25.45;39.66;99759.25;4496978;31;34140;-62
2022/07/08 08:13:53;;;;;;;4.78;2.30;;;;;;;25.74;39.78;99766.16;4498935;31;33832;-62
2022/07/08 08:16:21;;;;;;;5.57;2.25;;;;;;;25.27;40.84;99770.84;4499335;31;34466;-62
2022/07/08 08:18:49;;;;;;;4.53;2.85;;;;;;;25.42;40.15;99769.78;4500573;31;35010;-61
2022/07/08 08:21:16;;;;;;;7.07;2.65;;;;;;;25.51;39.37;99771.25;4492557;31;34172;-63
2022/07/08 08:23:44;;;;;;;5.60;2.55;;;;;;;25.54;39.82;99766.19;4497861;31;33941;-62
2022/07/08 08:26:12;;;;;;;3.87;2.55;;;;;;;25.88;39.21;99771.69;4493960;31;33082;-63
2022/07/08 08:28:39;;;;;;;3.95;2.40;;;;;;;25.89;40.30;99778.84;4483838;31;32876;-64
2022/07/08 08:31:07;;;;;;;4.20;2.20;;;;;;;25.85;39.89;99772.97;4499098;31;34314;-62
2022/07/08 08:33:35;;;;;;;6.18;2.28;;;;;;;25.83;39.69;99772.31;4494980;31;32348;-62
2022/07/08 08:36:02;;;;;;;4.57;2.30;;;;;;;26.31;37.95;99771.16;4500343;31;33142;-62
2022/07/08 08:38:30;;;;;;;4.75;2.70;;;;;;;26.22;38.26;99776.03;4488503;31;33455;-64
2022/07/08 08:40:59;;;;;;;4.50;2.78;;;;;;;26.34;38.43;99778.94;4493692;31;33703;-64
2022/07/08 08:43:27;;;;;;;9.93;2.28;;;;;;;26.00;38.81;99775.44;4491583;31;33888;-64
2022/07/08 08:45:55;;;;;;;3.67;2.42;;;;;;;26.38;38.47;99769.22;4495007;31;32073;-62
2022/07/08 08:48:23;;;;;;;4.57;2.30;;;;;;;26.73;38.11;99771.63;4490193;31;33648;-62
2022/07/08 08:50:56;;;;;;;5.22;2.47;;;;;;;26.06;38.14;99782.81;4485913;31;32430;-62
2022/07/08 08:53:27;;;;;;;3.60;2.00;;;;;;;26.27;37.34;99780.87;4496506;31;32448;-63
2022/07/08 08:55:56;;;;;;;5.90;2.58;;;;;;;26.83;37.04;99782.97;4497364;31;33421;-62
2022/07/08 08:58:24;;;;;;;4.82;2.10;;;;;;;26.70;36.99;99783.88;4483453;31;32056;-63
2022/07/08 09:00:52;;;;;;;3.60;2.20;;;;;;;26.63;37.28;99783.06;4500841;31;32620;-64
2022/07/08 09:03:20;;;;;;;4.22;2.35;;;;;;;26.20;37.13;99795.44;4495792;31;33773;-62
2022/07/08 09:05:49;;;;;;;4.12;2.55;;;;;;;26.57;36.38;99782.03;4486178;31;32985;-61
2022/07/08 09:08:16;;;;;;;3.83;2.20;;;;;;;26.62;37.02;99787.72;4494116;31;34125;-64
2022/07/08 09:10:44;;;;;;;5.97;2.40;;;;;;;26.21;37.65;99788.91;4485746;31;32893;-64
2022/07/08 09:13:16;;;;;;;4.80;2.10;;;;;;;26.78;35.70;99780.06;4484165;31;32200;-63
2022/07/08 09:15:51;;;;;;;4.20;2.45;;;;;;;26.59;36.25;99776.34;4497602;31;33435;-62
2022/07/08 09:18:20;;;;;;;9.32;2.30;;;;;;;26.95;35.52;99772.97;4492436;31;33675;-61
2022/07/08 09:20:53;;;;;;;6.82;2.65;;;;;;;25.71;38.72;99783.03;4499343;31;33419;-62
2022/07/08 09:23:35;;;;;;;4.62;2.60;;;;;;;26.49;37.30;99785.06;4498746;31;32246;-62
2022/07/08 09:26:08;;;;;;;5.55;2.33;;;;;;;26.80;35.82;99787.00;4499135;31;34360;-63
2022/07/08 09:28:39;;;;;;;4.65;2.28;;;;;;;26.78;34.78;99780.06;4497266;31;33501;-63
2022/07/08 09:31:08;;;;;;;3.90;2.20;;;;;;;26.97;35.34;99768.12;4499064;31;33881;-64
2022/07/08 09:33:36;;;;;;;5.12;2.53;;;;;;;26.37;36.42;99784.84;4496200;31;34944;-63
2022/07/08 09:36:05;;;;;;;6.10;2.45;;;;;;;26.71;35.85;99780.94;4492473;31;34514;-61
2022/07/08 09:38:37;;;;;;;6.57;2.70;;;;;;;25.54;37.88;99779.06;4487207;31;35320;-61
2022/07/08 09:41:12;;;;;;;5.68;2.65;;;;;;;26.38;37.21;99785.69;4494998;31;33727;-63
2022/07/08 09:43:49;;;;;;;3.85;2.35;;;;;;;26.60;36.65;99778.84;4498910;31;34185;-62
2022/07/08 09:46:17;;;;;;;4.22;2.40;;;;;;;26.22;37.29;99787.84;4496979;31;33333;-62
2022/07/08 09:48:45;;;;;;;5.57;2.45;;;;;;;26.23;37.27;99794.19;4495587;31;34763;-64
2022/07/08 09:51:16;;;;;;;5.75;2.78;;;;;;;26.14;37.03;99793.56;4483246;31;34039;-62
2022/07/08 09:53:45;;;;;;;7.35;2.33;;;;;;;26.68;36.52;99783.28;4494316;31;32364;-61
2022/07/08 09:56:12;;;;;;;4.15;2.60;;;;;;;26.81;36.30;99787.84;4498680;31;34618;-62
2022/07/08 09:58:40;;;;;;;3.70;2.33;;;;;;;26.00;37.00;99786.41;4485874;31;34210;-62
2022/07/08 10:01:08;;;;;;;4.03;2.10;;;;;;;26.18;36.61;99783.00;4486180;31;34167;-60
2022/07/08 10:03:36;;;;;;;3.90;2.22;;;;;;;26.22;36.47;99787.00;4497437;31;33665;-62
2022/07/08 10:06:04;;;;;;;3.90;2.20;;;;;;;26.19;36.64;99790.16;4498090;31;33010;-61
2022/07/08 10:08:32;;;;;;;4.93;2.60;;;;;;;26.00;37.10;99795.50;4485921;31;35149;-61
2022/07/08 10:11:03;;;;;;;7.50;2.10;;;;;;;26.42;36.37;99789.66;4500885;31;34143;-63
2022/07/08 10:13:31;;;;;;;3.97;2.45;;;;;;;26.58;35.96;99791.09;4486868;31;33218;-64
2022/07/08 10:16:01;;;;;;;6.78;2.95;;;;;;;26.14;36.80;99795.47;4493848;31;31934;-63
2022/07/08 10:18:55;;;;;;;4.90;2.58;;;;;;;26.17;36.97;99787.66;4487918;31;34362;-62
2022/07/08 10:21:24;;;;;;;4.20;2.35;;;;;;;26.81;35.77;99787.84;4490297;31;34052;-62
2022/07/08 10:23:53;;;;;;;3.90;2.25;;;;;;;26.62;35.19;99787.72;4473086;31;33424;-62
2022/07/08 10:26:32;;;;;;;3.90;2.20;;;;;;;26.01;36.21;99790.84;4496333;31;33328;-62
2022/07/08 10:29:01;;;;;;;2.75;1.92;;;;;;;26.06;36.04;99798.44;4480710;32;34788;-63
2022/07/08 10:31:29;;;;;;;3.60;1.98;;;;;;;25.96;36.04;99796.13;4483822;31;33141;-64
2022/07/08 10:34:00;;;;;;;5.87;2.45;;;;;;;26.06;35.16;99799.28;4495980;31;33986;-64
2022/07/08 10:36:28;;;;;;;4.72;2.45;;;;;;;26.06;35.51;99801.16;4498936;31;33568;-62
2022/07/08 10:38:56;;;;;;;4.50;2.33;;;;;;;26.56;34.35;99804.22;4493150;31;35074;-62
2022/07/08 10:41:26;;;;;;;3.25;1.90;;;;;;;25.95;35.37;99798.03;4490783;31;33671;-62
2022/07/08 10:43:58;;;;;;;4.78;2.58;;;;;;;26.65;34.64;99803.75;4491960;31;33863;-62
2022/07/08 10:46:26;;;;;;;3.72;2.20;;;;;;;26.63;34.32;99800.38;4492222;31;33279;-64
2022/07/08 10:48:59;;;;;;;4.45;2.20;;;;;;;26.50;34.16;99800.44;4493313;31;34988;-64
2022/07/08 10:51:28;;;;;;;3.70;2.10;;;;;;;26.28;34.33;99791.62;4499217;31;33894;-63
2022/07/08 10:54:24;;;;;;;4.75;2.22;;;;;;;26.48;33.52;99797.06;4498887;31;34093;-62
2022/07/08 10:56:57;;;;;;;5.62;2.30;;;;;;;27.10;32.66;99795.50;4491850;31;34869;-64
2022/07/08 10:59:29;;;;;;;3.65;2.17;;;;;;;26.60;33.47;99803.56;4493728;31;33999;-64
2022/07/08 11:02:04;;;;;;;5.40;1.90;;;;;;;26.60;33.12;99800.81;4495797;31;33715;-64
2022/07/08 11:04:34;;;;;;;6.35;2.20;;;;;;;26.68;32.96;99808.81;4498349;31;33799;-62
2022/07/08 11:07:14;;;;;;;7.70;2.22;;;;;;;26.54;32.50;99812.66;4496774;31;33730;-61
2022/07/08 11:09:46;;;;;;;8.35;2.25;;;;;;;26.59;32.11;99818.34;4494547;31;34482;-65
2022/07/08 11:12:15;;;;;;;4.97;1.92;;;;;;;27.05;31.96;99820.03;4485487;31;33832;-62
2022/07/08 11:14:47;;;;;;;5.45;2.40;;;;;;;26.75;32.17;99813.44;4497700;31;33781;-63
2022/07/08 11:17:26;;;;;;;2.58;1.90;;;;;;;26.75;32.18;99816.19;4482687;31;32920;-62
2022/07/08 11:19:56;;;;;;;3.28;2.00;;;;;;;27.00;32.39;99819.84;4483831;32;34076;-64
2022/07/08 11:22:25;;;;;;;4.47;2.00;;;;;;;26.93;31.27;99817.16;4486683;31;35235;-64
2022/07/08 11:24:54;;;;;;;4.18;1.90;;;;;;;26.32;32.97;99824.94;4498245;31;34371;-62
2022/07/08 11:27:26;;;;;;;6.18;2.33;;;;;;;26.62;31.82;99825.31;4496942;31;34225;-62
2022/07/08 11:29:55;;;;;;;3.58;1.98;;;;;;;27.00;31.71;99828.09;4491705;31;33230;-62
2022/07/08 11:32:25;;;;;;;4.30;1.90;;;;;;;27.27;31.16;99816.97;4497793;31;33852;-61
2022/07/08 11:34:54;;;;;;;3.95;1.95;;;;;;;27.32;30.91;99820.75;4498098;31;33748;-62
2022/07/08 11:37:22;;;;;;;4.97;2.10;;;;;;;27.11;30.54;99823.78;4497387;31;34313;-64
2022/07/08 11:39:50;;;;;;;4.70;1.83;;;;;;;27.36;30.26;99821.13;4500354;31;34083;-62
2022/07/08 11:42:18;;;;;;;3.72;1.90;;;;;;;27.16;31.05;99827.59;4496620;31;34154;-64